Flight Number: EUR1092 Duration: 1:30
Departure: Milano Linate (LIML) at 08:30 Distance: 510 Nm
Arrival: Gatwick Airport (EGKK) at 10:00 Equipment: MD-81

Weather Information
Milano / Linate, Italy (LIML) 45-26N 009-17E 103M Nov 19, 2018 - 05:20 PM EST / 2018.11.19 2220 UTC
Wind: from the ESE (120 degrees) at 8 MPH (7 KT):0
Visibility: greater than 7 mile(s):0
Sky conditions: mostly cloudy Weather: light rain Temperature: 41 F (5 C) Dew Point: 35 F (2 C) Relative Humidity: 80% Pressure (altimeter): 29.77 in. Hg (1008 hPa)
ob: LIML 192220Z 12007KT 9999 -RA SCT025 BKN045 05/02 Q1008 NOSIG cycle: 22
Sunrise: 06:31 Sunset: 15:45 (UTC)

London / Gatwick Airport, United Kingdom (EGKK) 51-09N 000-11W 0M Nov 19, 2018 - 05:20 PM EST / 2018.11.19 2220 UTC
Wind: from the NE (040 degrees) at 12 MPH (10 KT):0
Visibility: greater than 7 mile(s):0
Sky conditions: partly cloudy Temperature: 39 F (4 C) Dew Point: 35 F (2 C) Relative Humidity: 86% Pressure (altimeter): 29.94 in. Hg (1014 hPa)
ob: EGKK 192220Z 04010KT 9999 FEW017 SCT030 04/02 Q1014 cycle: 22
Sunrise: 07:29 Sunset: 16:03 (UTC)

TAF:2018/11/19 18:09 TAF EGKK 191659Z 1918/2024 05013KT 9999 BKN020 TEMPO 1918/2021 6000 SHRA BKN014 PROB30 TEMPO 1920/2016 04016G26KT 4000 +SHRA BKN008 BECMG 2021/2024 07003KT TEMPO 2021/2024 5000 BR BKN007

Previous Pireps for this route
Date Aircraft Flight time Fuel used Landing rate On time
2012-08-27MD-8102.2112000-349No
2012-09-23MD-8102.0713658-164No
2012-12-14A32101.4810598-234Yes
2013-03-06A3211.328957-74No
2013-09-02A3211.35117810No
2014-01-02A32101.3910325-265Yes
2014-10-15MD-8101.3510888-386Yes
2015-05-25A32101.5911235-231Yes
2015-08-10MD-8101.3710852-234Yes
2016-03-12MD-8101.4011151-204Yes
2016-10-16MD-811.40120520Charter
2017-08-26MD-812.2890620Charter
2017-08-26MD-812.2890620Charter
(pireps marked green are flown by you)

Route map